createdAt,value
2022-12-08T00:01:29.250Z,99039.00
2022-12-08T00:03:58.783Z,99031.00
2022-12-08T00:06:53.702Z,99040.00
2022-12-08T00:09:41.351Z,99033.00
2022-12-08T00:12:12.252Z,99044.00
2022-12-08T00:14:47.683Z,99031.00
2022-12-08T00:17:16.907Z,99039.00
2022-12-08T00:19:44.445Z,99023.00
2022-12-08T00:22:13.048Z,99043.00
2022-12-08T00:24:41.577Z,99048.00
2022-12-08T00:27:10.911Z,99053.00
2022-12-08T00:29:38.278Z,99071.00
2022-12-08T00:32:06.230Z,99073.00
2022-12-08T00:34:33.733Z,99076.00
2022-12-08T00:37:00.998Z,99076.00
2022-12-08T00:39:27.921Z,99085.00
2022-12-08T00:42:13.477Z,99074.00
2022-12-08T00:44:43.546Z,99092.00
2022-12-08T00:47:11.728Z,99074.00
2022-12-08T00:49:38.802Z,99089.00
2022-12-08T00:52:06.773Z,99082.00
2022-12-08T00:54:33.745Z,99080.00
2022-12-08T00:57:00.720Z,99085.00
2022-12-08T00:59:27.719Z,99090.00
2022-12-08T01:01:54.679Z,99086.00
2022-12-08T01:04:21.900Z,99091.00
2022-12-08T01:19:17.293Z,99090.00
2022-12-08T01:21:46.182Z,99095.00
2022-12-08T01:24:19.443Z,99095.00
2022-12-08T01:26:47.770Z,99097.00
2022-12-08T01:29:15.634Z,99069.00
2022-12-08T01:31:42.655Z,99101.00
2022-12-08T01:34:11.961Z,99092.00
2022-12-08T01:36:39.386Z,99107.00
2022-12-08T01:39:14.094Z,99083.00
2022-12-08T01:41:44.384Z,99082.00
2022-12-08T01:44:11.229Z,99111.00
2022-12-08T01:46:44.110Z,99105.00
2022-12-08T01:49:27.218Z,99113.00
2022-12-08T01:52:20.677Z,99110.00
2022-12-08T01:54:55.622Z,99112.00
2022-12-08T01:57:29.747Z,99110.00
2022-12-08T02:00:14.575Z,99114.00
2022-12-08T02:02:59.635Z,99118.00
2022-12-08T02:05:34.035Z,99118.00
2022-12-08T02:08:07.783Z,99112.00
2022-12-08T02:10:39.287Z,99109.00
2022-12-08T02:13:11.311Z,99118.00
2022-12-08T02:15:46.930Z,99129.00
2022-12-08T02:19:29.043Z,99130.00
2022-12-08T02:22:14.019Z,99125.00
2022-12-08T02:25:17.064Z,99117.00
2022-12-08T02:28:27.551Z,99130.00
2022-12-08T02:31:28.112Z,99132.00
2022-12-08T02:34:21.193Z,99127.00
2022-12-08T02:37:16.742Z,99133.00
2022-12-08T02:40:26.895Z,99125.00
2022-12-08T02:43:57.979Z,99140.00
2022-12-08T02:46:33.875Z,99124.00
2022-12-08T02:49:02.415Z,99126.00
2022-12-08T02:51:29.458Z,99129.00
2022-12-08T02:53:57.029Z,99134.00
2022-12-08T02:56:35.544Z,99138.00
2022-12-08T02:59:45.659Z,99138.00
2022-12-08T03:02:43.529Z,99131.00
2022-12-08T03:05:43.994Z,99133.00
2022-12-08T03:08:27.454Z,99112.00
2022-12-08T03:11:13.313Z,99135.00
2022-12-08T03:13:49.215Z,99140.00
2022-12-08T03:16:23.631Z,99147.00
2022-12-08T03:19:26.268Z,99144.00
2022-12-08T03:22:07.202Z,99152.00
2022-12-08T03:24:39.847Z,99151.00
2022-12-08T03:27:09.411Z,99143.00
2022-12-08T03:29:36.970Z,99151.00
2022-12-08T03:32:16.190Z,99147.00
2022-12-08T03:34:47.156Z,99155.00
2022-12-08T03:37:14.793Z,99158.00
2022-12-08T03:39:42.411Z,99166.00
2022-12-08T03:42:09.337Z,99150.00
2022-12-08T03:44:36.247Z,99160.00
2022-12-08T03:47:03.176Z,99149.00
2022-12-08T03:49:30.201Z,99168.00
2022-12-08T03:51:57.109Z,99159.00
2022-12-08T03:54:24.386Z,99168.00
2022-12-08T03:56:51.408Z,99169.00
2022-12-08T03:59:18.342Z,99173.00
2022-12-08T04:01:45.312Z,99180.00
2022-12-08T04:04:12.260Z,99170.00
2022-12-08T04:06:39.195Z,99173.00
2022-12-08T04:09:06.188Z,99176.00
2022-12-08T04:11:33.143Z,99175.00
2022-12-08T04:14:00.117Z,99177.00
2022-12-08T04:16:28.004Z,99175.00
2022-12-08T04:18:55.061Z,99169.00
2022-12-08T04:21:22.294Z,99061.00
2022-12-08T04:23:49.735Z,99175.00
2022-12-08T04:26:17.643Z,99168.00
2022-12-08T04:28:45.344Z,99178.00
2022-12-08T04:31:12.432Z,99180.00
2022-12-08T04:33:39.801Z,99181.00
2022-12-08T04:36:08.011Z,99192.00
2022-12-08T04:38:35.186Z,99199.00
2022-12-08T04:41:02.522Z,99195.00
2022-12-08T04:43:29.844Z,99200.00
2022-12-08T04:45:56.835Z,99204.00
2022-12-08T04:48:23.999Z,99206.00
2022-12-08T04:50:51.590Z,99210.00
2022-12-08T04:53:19.751Z,99210.00
2022-12-08T04:55:48.684Z,99196.00
2022-12-08T04:58:18.945Z,99198.00
2022-12-08T05:00:49.602Z,99195.00
2022-12-08T05:03:16.783Z,99205.00
2022-12-08T05:05:44.523Z,99209.00
2022-12-08T05:08:11.801Z,99200.00
2022-12-08T05:10:39.376Z,99200.00
2022-12-08T05:13:06.513Z,99183.00
2022-12-08T05:15:33.549Z,99203.00
2022-12-08T05:18:00.676Z,99191.00
2022-12-08T05:20:28.035Z,99189.00
2022-12-08T05:22:54.939Z,99214.00
2022-12-08T05:25:21.883Z,99211.00
2022-12-08T05:27:48.830Z,99213.00
2022-12-08T05:30:15.946Z,99218.00
2022-12-08T05:32:42.993Z,99194.00
2022-12-08T05:35:10.459Z,99210.00
2022-12-08T05:37:37.592Z,99214.00
2022-12-08T05:40:05.780Z,99177.00
2022-12-08T05:42:32.987Z,99205.00
2022-12-08T05:45:00.108Z,99212.00
2022-12-08T05:47:28.876Z,99224.00
2022-12-08T05:49:58.720Z,99226.00
2022-12-08T05:52:25.641Z,99226.00
2022-12-08T05:54:52.830Z,99238.00
2022-12-08T05:57:19.760Z,99242.00
2022-12-08T05:59:46.719Z,99232.00
2022-12-08T06:02:13.763Z,99239.00
2022-12-08T06:04:41.008Z,99237.00
2022-12-08T06:07:14.547Z,99252.00
2022-12-08T06:09:43.097Z,99246.00
2022-12-08T06:12:11.801Z,99250.00
2022-12-08T06:14:41.842Z,99217.00
2022-12-08T06:17:08.821Z,99248.00
2022-12-08T06:19:35.862Z,99259.00
2022-12-08T06:22:02.889Z,99244.00
2022-12-08T06:24:29.839Z,99260.00
2022-12-08T06:26:56.828Z,99266.00
2022-12-08T06:29:23.787Z,99230.00
2022-12-08T06:31:52.362Z,99261.00
2022-12-08T06:34:19.369Z,99276.00
2022-12-08T06:36:46.299Z,99270.00
2022-12-08T06:39:13.263Z,99267.00
2022-12-08T06:42:00.122Z,99271.00
2022-12-08T06:44:27.093Z,99263.00
2022-12-08T06:46:54.010Z,99275.00
2022-12-08T06:49:20.965Z,99275.00
2022-12-08T06:51:47.927Z,99268.00
2022-12-08T06:54:15.079Z,99261.00
2022-12-08T06:56:41.985Z,99278.00
2022-12-08T06:59:09.094Z,99288.00
2022-12-08T07:01:36.124Z,99289.00
2022-12-08T07:04:03.121Z,99294.00
2022-12-08T07:06:30.008Z,99295.00
2022-12-08T07:08:56.907Z,99296.00
2022-12-08T07:11:24.309Z,99307.00
2022-12-08T07:13:51.415Z,99312.00
2022-12-08T07:16:18.526Z,99315.00
2022-12-08T07:18:45.668Z,99323.00
2022-12-08T07:21:17.024Z,99295.00
2022-12-08T07:23:50.190Z,99320.00
2022-12-08T07:26:21.182Z,99327.00
2022-12-08T07:28:48.249Z,99330.00
2022-12-08T07:31:24.693Z,99327.00
2022-12-08T07:33:53.016Z,99339.00
2022-12-08T07:36:20.037Z,99339.00
2022-12-08T07:50:59.480Z,99352.00
2022-12-08T07:53:26.345Z,99344.00
2022-12-08T07:55:53.230Z,99347.00
2022-12-08T07:58:20.277Z,99353.00
2022-12-08T08:00:47.272Z,99349.00
2022-12-08T08:03:14.384Z,99353.00
2022-12-08T08:05:41.433Z,99353.00
2022-12-08T08:08:08.464Z,99345.00
2022-12-08T08:10:35.525Z,99339.00
2022-12-08T08:13:02.823Z,99362.00
2022-12-08T08:15:31.645Z,99356.00
2022-12-08T08:17:58.698Z,99348.00
2022-12-08T08:20:25.845Z,99348.00
2022-12-08T08:22:53.096Z,99349.00
2022-12-08T08:25:22.771Z,99362.00
2022-12-08T08:27:50.339Z,99359.00
2022-12-08T08:30:20.634Z,99361.00
2022-12-08T08:32:49.653Z,99355.00
2022-12-08T08:35:17.679Z,99356.00
2022-12-08T08:37:48.874Z,99361.00
2022-12-08T08:40:18.009Z,99359.00
2022-12-08T08:42:45.172Z,99361.00
2022-12-08T08:45:15.382Z,99368.00
2022-12-08T08:47:42.309Z,99368.00
2022-12-08T08:50:09.809Z,99373.00
2022-12-08T08:52:37.358Z,99379.00
2022-12-08T08:55:04.842Z,99371.00
2022-12-08T08:57:31.966Z,99379.00
2022-12-08T09:00:00.399Z,99374.00
2022-12-08T09:02:27.380Z,99378.00
2022-12-08T09:04:54.477Z,99378.00
2022-12-08T09:07:21.426Z,99369.00
2022-12-08T09:09:48.314Z,99378.00
2022-12-08T09:12:15.888Z,99373.00
2022-12-08T09:14:42.867Z,99377.00
2022-12-08T09:17:09.884Z,99375.00
2022-12-08T09:19:36.924Z,99371.00
2022-12-08T09:22:05.194Z,99375.00
2022-12-08T09:24:32.552Z,99359.00
2022-12-08T09:26:59.510Z,99376.00
2022-12-08T09:29:31.063Z,99375.00
2022-12-08T09:32:01.128Z,99371.00
2022-12-08T09:34:28.221Z,99371.00
2022-12-08T09:36:55.131Z,99375.00
2022-12-08T09:39:22.699Z,99374.00
2022-12-08T09:42:02.446Z,99366.00
2022-12-08T09:45:10.884Z,99370.00
2022-12-08T09:47:41.794Z,99364.00
2022-12-08T09:50:45.346Z,99365.00
2022-12-08T09:53:23.978Z,99369.00
2022-12-08T09:56:03.008Z,99367.00
2022-12-08T09:58:59.848Z,99359.00
2022-12-08T10:01:34.292Z,99358.00
2022-12-08T10:04:01.981Z,99337.00
2022-12-08T10:06:44.951Z,99366.00
2022-12-08T10:09:29.237Z,99343.00
2022-12-08T10:12:12.999Z,99367.00
2022-12-08T10:14:55.476Z,99364.00
2022-12-08T10:17:38.049Z,99362.00
2022-12-08T10:20:16.806Z,99359.00
2022-12-08T10:22:49.376Z,99331.00
2022-12-08T10:25:29.241Z,99364.00
2022-12-08T10:27:58.782Z,99360.00
2022-12-08T10:30:25.815Z,99354.00
2022-12-08T10:32:54.726Z,99361.00
2022-12-08T10:35:25.308Z,99347.00
2022-12-08T10:38:01.344Z,99332.00
2022-12-08T10:40:40.563Z,99339.00
2022-12-08T10:43:20.652Z,99345.00
2022-12-08T10:45:47.842Z,99331.00
2022-12-08T10:48:19.791Z,99340.00
2022-12-08T10:50:55.604Z,99323.00
2022-12-08T10:53:34.214Z,99326.00
2022-12-08T10:56:04.128Z,99322.00
2022-12-08T11:11:55.273Z,99319.00
2022-12-08T11:14:36.973Z,99310.00
2022-12-08T11:17:10.511Z,99306.00
2022-12-08T11:19:41.331Z,99305.00
2022-12-08T11:22:27.231Z,99305.00
2022-12-08T11:25:25.701Z,99292.00
2022-12-08T11:27:57.791Z,99293.00
2022-12-08T11:30:30.891Z,99295.00
2022-12-08T11:33:21.963Z,99287.00
2022-12-08T11:35:57.756Z,99271.00
2022-12-08T11:38:27.315Z,99277.00
2022-12-08T11:41:24.161Z,99270.00
2022-12-08T11:44:12.392Z,99247.00
2022-12-08T11:46:46.439Z,99275.00
2022-12-08T11:49:14.668Z,99273.00
2022-12-08T11:52:08.825Z,99271.00
2022-12-08T11:54:50.011Z,99265.00
2022-12-08T11:57:20.863Z,99260.00
2022-12-08T11:59:51.536Z,99267.00
2022-12-08T12:02:31.976Z,99267.00
2022-12-08T12:05:08.304Z,99259.00
2022-12-08T12:08:11.813Z,99250.00
2022-12-08T12:11:09.315Z,99257.00
2022-12-08T12:14:00.342Z,99259.00
2022-12-08T12:17:00.001Z,99256.00
2022-12-08T12:19:32.815Z,99251.00
2022-12-08T12:22:20.632Z,99242.00
2022-12-08T12:24:51.845Z,99243.00
2022-12-08T12:27:29.063Z,99249.00
2022-12-08T12:30:01.770Z,99247.00
2022-12-08T12:32:48.801Z,99236.00
2022-12-08T12:35:43.100Z,99221.00
2022-12-08T12:39:02.885Z,99235.00
2022-12-08T12:41:43.365Z,99243.00
2022-12-08T12:44:13.411Z,99242.00
2022-12-08T12:46:46.396Z,99243.00
2022-12-08T12:49:46.166Z,99240.00
2022-12-08T12:52:15.826Z,99228.00
2022-12-08T12:54:49.923Z,99236.00
2022-12-08T12:57:25.353Z,99222.00
2022-12-08T12:59:56.028Z,99224.00
2022-12-08T13:02:27.673Z,99214.00
2022-12-08T13:05:17.914Z,99207.00
2022-12-08T13:08:23.727Z,99209.00
2022-12-08T13:11:10.013Z,99218.00
2022-12-08T13:14:03.434Z,99209.00
2022-12-08T13:16:39.599Z,99211.00
2022-12-08T13:19:16.239Z,99204.00
2022-12-08T13:21:43.393Z,99210.00
2022-12-08T13:24:25.641Z,99208.00
2022-12-08T13:27:04.863Z,99209.00
2022-12-08T13:29:37.271Z,99210.00
2022-12-08T13:32:24.748Z,99211.00
2022-12-08T13:35:00.683Z,99185.00
2022-12-08T13:37:52.382Z,99209.00
2022-12-08T13:40:30.144Z,99208.00
2022-12-08T13:43:19.563Z,99203.00
2022-12-08T13:46:52.251Z,99203.00
2022-12-08T13:56:05.559Z,99194.00
2022-12-08T13:57:34.344Z,99201.00
2022-12-08T14:00:16.036Z,99205.00
2022-12-08T14:02:49.936Z,99184.00
2022-12-08T14:05:30.077Z,99191.00
2022-12-08T14:08:57.815Z,99196.00
2022-12-08T14:11:33.948Z,99203.00
2022-12-08T14:14:27.184Z,99205.00
2022-12-08T14:17:07.223Z,99204.00
2022-12-08T14:19:35.612Z,99181.00
2022-12-08T14:22:18.624Z,99201.00
2022-12-08T14:24:52.856Z,99201.00
2022-12-08T14:27:26.292Z,99184.00
2022-12-08T14:30:06.131Z,99189.00
2022-12-08T14:32:52.480Z,99200.00
2022-12-08T14:35:33.809Z,99192.00
2022-12-08T14:38:09.766Z,99200.00
2022-12-08T14:40:43.112Z,99195.00
2022-12-08T14:43:10.198Z,99194.00
2022-12-08T14:45:42.642Z,99192.00
2022-12-08T14:48:22.157Z,99187.00
2022-12-08T14:51:04.240Z,99199.00
2022-12-08T14:53:41.494Z,99200.00
2022-12-08T14:56:25.903Z,99190.00
2022-12-08T14:59:33.295Z,99195.00
2022-12-08T15:02:32.060Z,99194.00
2022-12-08T15:05:16.112Z,99192.00
2022-12-08T15:08:02.494Z,99189.00
2022-12-08T15:10:33.310Z,99195.00
2022-12-08T15:13:09.525Z,99189.00
2022-12-08T15:15:56.624Z,99191.00
2022-12-08T15:18:41.351Z,99194.00
2022-12-08T15:21:12.837Z,99195.00
2022-12-08T15:23:50.314Z,99192.00
2022-12-08T15:26:26.174Z,99190.00
2022-12-08T15:28:55.192Z,99197.00
2022-12-08T15:31:22.412Z,99197.00
2022-12-08T15:33:49.448Z,99191.00
2022-12-08T15:36:16.390Z,99187.00
2022-12-08T15:38:43.693Z,99182.00
2022-12-08T15:41:14.908Z,99176.00
2022-12-08T15:43:44.049Z,99180.00
2022-12-08T15:46:12.200Z,99178.00
2022-12-08T15:48:39.218Z,99177.00
2022-12-08T15:51:06.187Z,99172.00
2022-12-08T15:53:33.223Z,99180.00
2022-12-08T15:58:56.155Z,99173.00
2022-12-08T16:01:24.537Z,99172.00
2022-12-08T16:09:38.444Z,99162.00
2022-12-08T16:13:13.398Z,99166.00
2022-12-08T16:15:50.082Z,99148.00
2022-12-08T16:18:15.949Z,99131.00
2022-12-08T16:21:07.464Z,99160.00
2022-12-08T16:23:43.057Z,99152.00
2022-12-08T16:29:18.345Z,99164.00
2022-12-08T16:31:45.332Z,99153.00
2022-12-08T16:34:12.316Z,99152.00
2022-12-08T16:36:39.307Z,99154.00
2022-12-08T16:52:30.544Z,99160.00
2022-12-08T16:54:57.780Z,99149.00
2022-12-08T16:57:24.722Z,99153.00
2022-12-08T16:59:51.701Z,99156.00
2022-12-08T17:02:18.613Z,99142.00
2022-12-08T17:04:45.732Z,99147.00
2022-12-08T17:07:12.754Z,99142.00
2022-12-08T17:09:39.758Z,99152.00
2022-12-08T17:12:06.842Z,99159.00
2022-12-08T17:14:35.460Z,99149.00
2022-12-08T17:17:02.727Z,99152.00
2022-12-08T17:19:31.137Z,99147.00
2022-12-08T17:21:58.168Z,99149.00
2022-12-08T17:24:28.984Z,99142.00
2022-12-08T17:26:58.512Z,99148.00
2022-12-08T17:29:25.480Z,99140.00
2022-12-08T17:31:52.513Z,99147.00
2022-12-08T17:34:19.544Z,99149.00
2022-12-08T17:36:46.545Z,99154.00
2022-12-08T17:39:18.339Z,99158.00
2022-12-08T17:41:46.372Z,99152.00
2022-12-08T17:44:18.534Z,99155.00
2022-12-08T17:46:52.099Z,99156.00
2022-12-08T17:49:24.651Z,99151.00
2022-12-08T17:51:55.252Z,99149.00
2022-12-08T17:54:22.783Z,99159.00
2022-12-08T17:56:49.812Z,99154.00
2022-12-08T17:59:17.117Z,99151.00
2022-12-08T18:01:44.499Z,99159.00
2022-12-08T18:04:13.113Z,99156.00
2022-12-08T18:06:40.759Z,99156.00
2022-12-08T18:09:08.813Z,99156.00
2022-12-08T18:11:36.157Z,99165.00
2022-12-08T18:14:10.542Z,99151.00
2022-12-08T18:16:41.432Z,99159.00
2022-12-08T18:19:09.609Z,99167.00
2022-12-08T18:21:37.726Z,99167.00
2022-12-08T18:24:05.909Z,99164.00
2022-12-08T18:26:33.724Z,99162.00
2022-12-08T18:29:01.076Z,99164.00
2022-12-08T18:31:28.187Z,99163.00
2022-12-08T18:33:55.308Z,99167.00
2022-12-08T18:36:25.695Z,99164.00
2022-12-08T18:38:53.865Z,99168.00
2022-12-08T18:41:26.068Z,99157.00
2022-12-08T18:43:55.438Z,99133.00
2022-12-08T18:46:24.103Z,99166.00
2022-12-08T18:48:52.275Z,99170.00
2022-12-08T18:51:23.750Z,99170.00
2022-12-08T18:53:52.077Z,99135.00
2022-12-08T18:56:30.422Z,99174.00
2022-12-08T18:59:03.870Z,99169.00
2022-12-08T19:01:37.173Z,99180.00
2022-12-08T19:06:54.219Z,99173.00
2022-12-08T19:09:23.121Z,99167.00
2022-12-08T19:11:50.178Z,99183.00
2022-12-08T19:14:21.262Z,99177.00
2022-12-08T19:16:51.406Z,99167.00
2022-12-08T19:19:19.091Z,99180.00
2022-12-08T19:21:46.827Z,99170.00
2022-12-08T19:24:14.365Z,99179.00
2022-12-08T19:26:42.375Z,99185.00
2022-12-08T19:29:10.902Z,99183.00
2022-12-08T19:31:40.485Z,99180.00
2022-12-08T19:34:09.609Z,99177.00
2022-12-08T19:36:42.827Z,99181.00
2022-12-08T19:39:40.429Z,99171.00
2022-12-08T19:42:36.408Z,99185.00
2022-12-08T19:45:12.835Z,99199.00
2022-12-08T19:47:41.565Z,99192.00
2022-12-08T19:50:30.933Z,99191.00
2022-12-08T19:53:00.049Z,99193.00
2022-12-08T19:55:28.597Z,99191.00
2022-12-08T19:57:57.027Z,99191.00
2022-12-08T20:13:45.205Z,99209.00
2022-12-08T20:16:12.982Z,99212.00
2022-12-08T20:18:42.239Z,99211.00
2022-12-08T20:21:11.306Z,99212.00
2022-12-08T20:23:38.506Z,99209.00
2022-12-08T20:26:09.895Z,99212.00
2022-12-08T20:28:37.704Z,99231.00
2022-12-08T20:31:05.312Z,99225.00
2022-12-08T20:33:32.306Z,99226.00
2022-12-08T20:36:05.785Z,99235.00
2022-12-08T20:38:32.906Z,99229.00
2022-12-08T20:41:00.924Z,99228.00
2022-12-08T20:43:28.116Z,99234.00
2022-12-08T20:45:56.583Z,99238.00
2022-12-08T20:48:25.702Z,99239.00
2022-12-08T20:50:53.728Z,99244.00
2022-12-08T20:53:23.098Z,99239.00
2022-12-08T20:55:54.497Z,99250.00
2022-12-08T20:58:22.934Z,99260.00
2022-12-08T21:00:50.284Z,99263.00
2022-12-08T21:03:19.419Z,99255.00
2022-12-08T21:05:53.893Z,99230.00
2022-12-08T21:08:28.305Z,99260.00
2022-12-08T21:10:57.354Z,99262.00
2022-12-08T21:13:25.325Z,99263.00
2022-12-08T21:15:53.522Z,99263.00
2022-12-08T21:18:21.758Z,99271.00
2022-12-08T21:20:53.510Z,99269.00
2022-12-08T21:23:24.403Z,99274.00
2022-12-08T21:25:55.116Z,99263.00
2022-12-08T21:28:22.856Z,99268.00
2022-12-08T21:30:50.820Z,99263.00
2022-12-08T21:33:19.950Z,99279.00
2022-12-08T21:35:47.553Z,99272.00
2022-12-08T21:38:14.916Z,99274.00
2022-12-08T21:40:43.287Z,99277.00
2022-12-08T21:43:14.015Z,99279.00
2022-12-08T21:45:41.531Z,99265.00
2022-12-08T21:48:12.115Z,99282.00
2022-12-08T21:50:42.966Z,99278.00
2022-12-08T21:53:10.969Z,99286.00
2022-12-08T21:55:40.081Z,99297.00
2022-12-08T21:58:07.560Z,99307.00
2022-12-08T22:00:36.128Z,99298.00
2022-12-08T22:03:05.394Z,99290.00
2022-12-08T22:05:35.500Z,99295.00
2022-12-08T22:08:06.144Z,99283.00
2022-12-08T22:10:33.968Z,99294.00
2022-12-08T22:13:01.416Z,99298.00
2022-12-08T22:15:29.752Z,99279.00
2022-12-08T22:17:59.314Z,99296.00
2022-12-08T22:20:26.378Z,99305.00
2022-12-08T22:22:53.437Z,99308.00
2022-12-08T22:25:20.688Z,99314.00
2022-12-08T22:27:47.880Z,99313.00
2022-12-08T22:30:15.178Z,99315.00
2022-12-08T22:32:42.509Z,99323.00
2022-12-08T22:35:10.217Z,99324.00
2022-12-08T22:37:37.178Z,99325.00
2022-12-08T22:40:06.264Z,99325.00
2022-12-08T22:42:33.524Z,99324.00
2022-12-08T22:45:00.539Z,99332.00
2022-12-08T22:47:27.587Z,99328.00
2022-12-08T22:49:54.549Z,99339.00
2022-12-08T22:52:21.589Z,99347.00
2022-12-08T22:54:48.879Z,99348.00
2022-12-08T22:57:15.947Z,99351.00
2022-12-08T22:59:43.322Z,99348.00
2022-12-08T23:02:10.597Z,99349.00
2022-12-08T23:04:37.920Z,99345.00
2022-12-08T23:07:05.510Z,99349.00
2022-12-08T23:09:32.679Z,99344.00
2022-12-08T23:11:59.697Z,99345.00
2022-12-08T23:14:26.891Z,99345.00
2022-12-08T23:16:54.191Z,99339.00
2022-12-08T23:19:21.471Z,99336.00
2022-12-08T23:21:48.516Z,99337.00
2022-12-08T23:35:24.989Z,99363.00
2022-12-08T23:37:53.711Z,99353.00
2022-12-08T23:40:20.780Z,99352.00
2022-12-08T23:42:48.004Z,99331.00
2022-12-08T23:45:15.385Z,99365.00
2022-12-08T23:47:42.399Z,99361.00
2022-12-08T23:50:10.330Z,99370.00
2022-12-08T23:52:39.785Z,99370.00
2022-12-08T23:55:08.796Z,99374.00
2022-12-08T23:57:36.654Z,99369.00
